createdAt,value
2023-03-29T00:00:49.424Z,5.90
2023-03-29T00:02:52.364Z,5.80
2023-03-29T00:04:55.196Z,5.80
2023-03-29T00:06:58.000Z,5.90
2023-03-29T00:09:01.916Z,5.90
2023-03-29T00:11:05.154Z,6.00
2023-03-29T00:13:08.002Z,5.90
2023-03-29T00:15:12.830Z,5.90
2023-03-29T00:17:15.594Z,5.90
2023-03-29T00:19:18.512Z,5.80
2023-03-29T00:21:21.610Z,5.80
2023-03-29T00:23:25.043Z,5.70
2023-03-29T00:25:27.786Z,5.70
2023-03-29T00:27:30.639Z,5.70
2023-03-29T00:29:33.538Z,5.70
2023-03-29T00:31:38.563Z,5.70
2023-03-29T00:33:41.519Z,5.70
2023-03-29T00:35:44.298Z,5.60
2023-03-29T00:37:50.869Z,5.60
2023-03-29T00:39:53.980Z,5.70
2023-03-29T00:41:56.746Z,5.70
2023-03-29T00:44:00.371Z,5.70
2023-03-29T00:46:03.162Z,5.70
2023-03-29T00:48:08.351Z,5.70
2023-03-29T00:50:14.306Z,5.70
2023-03-29T00:52:18.181Z,5.70
2023-03-29T00:54:20.924Z,5.60
2023-03-29T00:56:25.034Z,5.60
2023-03-29T00:58:31.337Z,5.60
2023-03-29T01:00:36.063Z,5.50
2023-03-29T01:02:39.811Z,5.50
2023-03-29T01:04:45.468Z,5.40
2023-03-29T01:06:49.771Z,5.40
2023-03-29T01:08:54.260Z,5.40
2023-03-29T01:10:59.709Z,5.30
2023-03-29T01:13:04.785Z,5.30
2023-03-29T01:15:09.953Z,5.20
2023-03-29T01:17:12.862Z,5.20
2023-03-29T01:19:18.991Z,5.10
2023-03-29T01:21:24.566Z,5.10
2023-03-29T01:23:37.914Z,5.00
2023-03-29T01:25:43.288Z,5.00
2023-03-29T01:27:52.055Z,5.10
2023-03-29T01:29:57.737Z,5.20
2023-03-29T01:32:02.601Z,5.20
2023-03-29T01:34:08.409Z,5.30
2023-03-29T01:36:13.986Z,5.30
2023-03-29T01:38:18.494Z,5.30
2023-03-29T01:40:21.275Z,5.40
2023-03-29T01:42:37.387Z,5.40
2023-03-29T01:44:46.401Z,5.40
2023-03-29T01:46:51.443Z,5.40
2023-03-29T01:48:55.962Z,5.40
2023-03-29T01:51:01.472Z,5.40
2023-03-29T01:53:05.454Z,5.40
2023-03-29T01:55:12.233Z,5.50
2023-03-29T01:57:15.167Z,5.50
2023-03-29T01:59:19.258Z,5.50
2023-03-29T02:01:26.010Z,5.50
2023-03-29T02:03:30.887Z,5.40
2023-03-29T02:05:34.749Z,5.40
2023-03-29T02:07:38.214Z,5.40
2023-03-29T02:09:41.146Z,5.40
2023-03-29T02:11:43.939Z,5.40
2023-03-29T02:13:46.786Z,5.40
2023-03-29T02:15:49.607Z,5.40
2023-03-29T02:17:54.718Z,5.40
2023-03-29T02:19:59.316Z,5.40
2023-03-29T02:22:03.899Z,5.40
2023-03-29T02:24:07.864Z,5.30
2023-03-29T02:26:10.650Z,5.30
2023-03-29T02:28:13.471Z,5.30
2023-03-29T02:30:17.204Z,5.30
2023-03-29T02:32:22.547Z,5.20
2023-03-29T02:34:29.115Z,5.30
2023-03-29T02:36:33.156Z,5.30
2023-03-29T02:38:35.945Z,5.20
2023-03-29T02:40:39.948Z,5.20
2023-03-29T02:42:42.893Z,5.20
2023-03-29T02:44:46.263Z,5.20
2023-03-29T02:46:49.590Z,5.20
2023-03-29T02:48:52.845Z,5.20
2023-03-29T02:50:57.867Z,5.20
2023-03-29T02:53:02.975Z,5.20
2023-03-29T02:55:06.496Z,5.10
2023-03-29T02:57:10.210Z,5.10
2023-03-29T02:59:14.396Z,5.10
2023-03-29T03:01:17.836Z,5.10
2023-03-29T03:03:20.809Z,5.10
2023-03-29T03:05:24.251Z,5.10
2023-03-29T03:07:29.313Z,5.10
2023-03-29T03:09:32.236Z,5.10
2023-03-29T03:11:35.388Z,5.10
2023-03-29T03:13:38.197Z,5.10
2023-03-29T03:15:42.744Z,5.10
2023-03-29T03:17:46.587Z,5.10
2023-03-29T03:19:49.538Z,5.10
2023-03-29T03:21:52.351Z,5.10
2023-03-29T03:23:56.940Z,5.10
2023-03-29T03:26:00.022Z,5.00
2023-03-29T03:28:02.927Z,5.10
2023-03-29T03:30:06.448Z,5.00
2023-03-29T03:32:09.729Z,5.00
2023-03-29T03:34:12.988Z,5.00
2023-03-29T03:36:15.804Z,5.00
2023-03-29T03:38:18.637Z,5.00
2023-03-29T03:40:22.743Z,5.00
2023-03-29T03:42:25.614Z,5.00
2023-03-29T03:44:28.388Z,5.00
2023-03-29T03:46:31.439Z,5.00
2023-03-29T03:48:34.278Z,5.00
2023-03-29T03:50:38.254Z,5.00
2023-03-29T03:52:41.045Z,5.00
2023-03-29T03:54:43.983Z,5.00
2023-03-29T03:56:49.077Z,4.90
2023-03-29T03:58:51.879Z,4.90
2023-03-29T04:00:54.933Z,4.90
2023-03-29T04:02:57.881Z,4.80
2023-03-29T04:05:03.543Z,4.80
2023-03-29T04:07:06.310Z,4.90
2023-03-29T04:09:09.728Z,4.80
2023-03-29T04:11:12.535Z,4.80
2023-03-29T04:13:17.141Z,4.80
2023-03-29T04:15:20.291Z,4.80
2023-03-29T04:17:23.182Z,4.80
2023-03-29T04:19:26.210Z,4.80
2023-03-29T04:21:28.978Z,4.80
2023-03-29T04:23:31.777Z,4.80
2023-03-29T04:25:34.569Z,4.80
2023-03-29T04:27:37.426Z,4.80
2023-03-29T04:29:44.758Z,4.80
2023-03-29T04:31:48.424Z,4.80
2023-03-29T04:33:51.588Z,4.80
2023-03-29T04:35:54.394Z,4.80
2023-03-29T04:37:57.216Z,4.80
2023-03-29T04:40:01.220Z,4.80
2023-03-29T04:42:05.607Z,4.80
2023-03-29T04:44:08.420Z,4.70
2023-03-29T04:46:13.249Z,4.80
2023-03-29T04:48:16.475Z,4.80
2023-03-29T04:50:19.430Z,4.80
2023-03-29T04:52:23.947Z,4.80
2023-03-29T04:54:27.380Z,4.80
2023-03-29T04:56:30.809Z,4.80
2023-03-29T04:58:33.603Z,4.80
2023-03-29T05:00:36.622Z,4.80
2023-03-29T05:02:40.736Z,4.70
2023-03-29T05:04:43.545Z,4.80
2023-03-29T05:06:46.836Z,4.80
2023-03-29T05:08:49.599Z,4.70
2023-03-29T05:10:52.353Z,4.70
2023-03-29T05:12:56.180Z,4.70
2023-03-29T05:14:58.972Z,4.80
2023-03-29T05:17:01.767Z,4.70
2023-03-29T05:19:05.975Z,4.80
2023-03-29T05:21:09.439Z,4.80
2023-03-29T05:23:12.523Z,4.80
2023-03-29T05:25:17.422Z,4.80
2023-03-29T05:27:20.959Z,4.80
2023-03-29T05:29:24.046Z,4.80
2023-03-29T05:31:28.160Z,4.80
2023-03-29T05:33:31.303Z,4.80
2023-03-29T05:35:35.901Z,4.90
2023-03-29T05:37:39.012Z,4.80
2023-03-29T05:39:43.019Z,4.90
2023-03-29T05:41:46.480Z,4.90
2023-03-29T05:43:49.285Z,4.90
2023-03-29T05:45:53.947Z,4.90
2023-03-29T05:47:57.523Z,4.90
2023-03-29T05:50:00.518Z,5.00
2023-03-29T05:52:04.674Z,4.90
2023-03-29T05:54:07.519Z,5.00
2023-03-29T05:56:11.595Z,5.00
2023-03-29T05:58:15.530Z,5.10
2023-03-29T06:00:23.925Z,5.10
2023-03-29T06:02:28.502Z,5.10
2023-03-29T06:04:31.833Z,5.10
2023-03-29T06:06:35.736Z,5.20
2023-03-29T06:08:39.889Z,5.20
2023-03-29T06:10:42.870Z,5.20
2023-03-29T06:12:46.843Z,5.30
2023-03-29T06:14:49.627Z,5.30
2023-03-29T06:16:53.430Z,5.30
2023-03-29T06:18:56.246Z,5.40
2023-03-29T06:20:59.050Z,5.50
2023-03-29T06:23:01.830Z,5.60
2023-03-29T06:25:06.330Z,5.60
2023-03-29T06:27:09.318Z,5.70
2023-03-29T06:29:12.109Z,5.80
2023-03-29T06:31:14.958Z,5.80
2023-03-29T06:33:18.695Z,5.80
2023-03-29T06:35:21.840Z,5.90
2023-03-29T06:37:24.646Z,5.90
2023-03-29T06:39:27.468Z,6.00
2023-03-29T06:41:31.639Z,6.00
2023-03-29T06:43:34.843Z,6.00
2023-03-29T06:45:38.652Z,6.10
2023-03-29T06:47:42.060Z,6.00
2023-03-29T06:49:44.973Z,6.10
2023-03-29T06:51:48.678Z,6.20
2023-03-29T06:53:51.434Z,6.30
2023-03-29T06:55:54.222Z,6.30
2023-03-29T06:58:00.212Z,6.40
2023-03-29T07:00:14.148Z,6.40
2023-03-29T07:02:17.408Z,6.40
2023-03-29T07:04:20.519Z,6.40
2023-03-29T07:06:23.307Z,6.40
2023-03-29T07:08:31.253Z,6.40
2023-03-29T07:10:38.146Z,6.30
2023-03-29T07:12:40.912Z,6.30
2023-03-29T07:14:46.609Z,6.20
2023-03-29T07:16:51.892Z,6.30
2023-03-29T07:18:54.820Z,6.30
2023-03-29T07:20:57.900Z,6.30
2023-03-29T07:23:00.768Z,6.30
2023-03-29T07:25:03.558Z,6.30
2023-03-29T07:27:06.438Z,6.30
2023-03-29T07:29:09.273Z,6.40
2023-03-29T07:31:15.550Z,6.50
2023-03-29T07:33:18.762Z,6.50
2023-03-29T07:35:21.618Z,6.60
2023-03-29T07:37:24.855Z,6.50
2023-03-29T07:39:27.817Z,6.60
2023-03-29T07:41:30.609Z,6.50
2023-03-29T07:43:34.169Z,6.50
2023-03-29T07:45:37.075Z,6.60
2023-03-29T07:47:41.591Z,6.60
2023-03-29T07:49:44.424Z,6.60
2023-03-29T07:51:47.752Z,6.70
2023-03-29T07:53:50.884Z,6.70
2023-03-29T07:55:54.796Z,6.80
2023-03-29T07:57:57.591Z,6.90
2023-03-29T08:00:00.430Z,7.00
2023-03-29T08:02:03.208Z,7.00
2023-03-29T08:04:07.576Z,7.00
2023-03-29T08:06:10.500Z,7.10
2023-03-29T08:08:14.096Z,7.30
2023-03-29T08:10:17.704Z,7.30
2023-03-29T08:12:22.005Z,7.40
2023-03-29T08:14:25.945Z,7.40
2023-03-29T08:16:28.759Z,7.50
2023-03-29T08:18:33.516Z,7.50
2023-03-29T08:20:38.910Z,7.70
2023-03-29T08:22:41.731Z,7.70
2023-03-29T08:24:44.541Z,7.70
2023-03-29T08:26:48.744Z,7.70
2023-03-29T08:28:51.513Z,7.70
2023-03-29T08:30:54.506Z,7.80
2023-03-29T08:32:57.318Z,7.80
2023-03-29T08:35:03.789Z,7.90
2023-03-29T08:37:08.549Z,7.90
2023-03-29T08:39:11.313Z,8.00
2023-03-29T08:41:23.282Z,7.90
2023-03-29T08:43:41.380Z,8.10
2023-03-29T08:45:50.911Z,8.10
2023-03-29T08:47:57.725Z,8.10
2023-03-29T08:50:00.755Z,8.00
2023-03-29T08:52:04.545Z,8.10
2023-03-29T08:54:11.469Z,8.20
2023-03-29T08:56:16.152Z,8.30
2023-03-29T08:58:21.105Z,8.30
2023-03-29T09:00:27.390Z,8.30
2023-03-29T09:02:32.732Z,8.30
2023-03-29T09:04:36.510Z,8.30
2023-03-29T09:06:40.254Z,8.30
2023-03-29T09:08:44.845Z,8.30
2023-03-29T09:10:52.201Z,8.30
2023-03-29T09:13:03.316Z,8.20
2023-03-29T09:15:15.325Z,8.10
2023-03-29T09:17:24.250Z,7.90
2023-03-29T09:19:29.155Z,7.90
2023-03-29T09:21:33.739Z,7.90
2023-03-29T09:23:48.281Z,8.00
2023-03-29T09:25:55.856Z,7.90
2023-03-29T09:28:01.111Z,7.90
2023-03-29T09:30:07.244Z,7.90
2023-03-29T09:32:16.228Z,7.90
2023-03-29T09:34:20.784Z,7.80
2023-03-29T09:36:26.074Z,7.80
2023-03-29T09:38:28.889Z,7.80
2023-03-29T09:40:33.798Z,7.80
2023-03-29T09:42:37.981Z,7.80
2023-03-29T09:44:43.727Z,7.80
2023-03-29T09:46:48.214Z,7.90
2023-03-29T09:48:51.038Z,7.90
2023-03-29T09:50:53.831Z,7.80
2023-03-29T09:52:56.622Z,7.90
2023-03-29T09:54:59.614Z,7.90
2023-03-29T09:57:03.265Z,7.90
2023-03-29T09:59:07.435Z,8.00
2023-03-29T10:01:12.478Z,8.00
2023-03-29T10:03:19.424Z,7.90
2023-03-29T10:05:22.458Z,7.90
2023-03-29T10:07:25.249Z,7.90
2023-03-29T10:09:29.571Z,7.90
2023-03-29T10:11:34.473Z,7.90
2023-03-29T10:13:38.558Z,8.00
2023-03-29T10:15:43.275Z,8.10
2023-03-29T10:17:46.137Z,8.40
2023-03-29T10:19:50.351Z,8.70
2023-03-29T10:21:53.986Z,8.80
2023-03-29T10:23:59.232Z,8.90
2023-03-29T10:26:04.198Z,9.00
2023-03-29T10:28:11.972Z,9.10
2023-03-29T10:30:21.359Z,9.10
2023-03-29T10:32:29.056Z,9.20
2023-03-29T10:34:32.510Z,9.30
2023-03-29T10:36:35.503Z,9.50
2023-03-29T10:38:39.392Z,9.40
2023-03-29T10:40:43.631Z,9.50
2023-03-29T10:42:48.045Z,9.40
2023-03-29T10:44:54.234Z,9.40
2023-03-29T10:46:57.005Z,9.40
2023-03-29T10:49:03.042Z,9.50
2023-03-29T10:51:07.474Z,9.50
2023-03-29T10:53:14.296Z,9.50
2023-03-29T10:55:17.369Z,9.50
2023-03-29T10:57:23.214Z,9.60
2023-03-29T10:59:28.823Z,9.70
2023-03-29T11:01:34.838Z,9.80
2023-03-29T11:04:01.082Z,9.90
2023-03-29T11:06:07.750Z,10.00
2023-03-29T11:08:29.766Z,10.10
2023-03-29T11:10:38.669Z,10.20
2023-03-29T11:12:43.883Z,10.10
2023-03-29T11:14:53.367Z,10.20
2023-03-29T11:17:02.018Z,10.50
2023-03-29T11:19:16.140Z,10.80
2023-03-29T11:21:23.694Z,10.70
2023-03-29T11:23:32.339Z,10.70
2023-03-29T11:25:42.680Z,10.70
2023-03-29T11:27:48.551Z,10.50
2023-03-29T11:29:58.653Z,10.80
2023-03-29T11:32:04.384Z,10.90
2023-03-29T11:34:21.842Z,11.00
2023-03-29T11:36:26.583Z,11.50
2023-03-29T11:38:32.846Z,11.50
2023-03-29T11:40:42.719Z,11.60
2023-03-29T11:42:47.846Z,12.00
2023-03-29T11:44:53.496Z,13.10
2023-03-29T11:46:59.600Z,13.10
2023-03-29T11:49:05.361Z,12.70
2023-03-29T11:51:13.161Z,12.50
2023-03-29T11:53:18.248Z,12.10
2023-03-29T11:55:23.543Z,12.90
2023-03-29T11:57:27.434Z,12.70
2023-03-29T11:59:33.036Z,12.70
2023-03-29T12:01:37.903Z,12.40
2023-03-29T12:03:44.153Z,12.20
2023-03-29T12:05:49.842Z,11.90
2023-03-29T12:07:55.958Z,11.60
2023-03-29T12:10:00.752Z,11.50
2023-03-29T12:12:07.715Z,11.50
2023-03-29T12:14:12.518Z,11.60
2023-03-29T12:16:17.444Z,11.80
2023-03-29T12:18:22.436Z,11.80
2023-03-29T12:20:28.080Z,11.80
2023-03-29T12:22:30.981Z,11.90
2023-03-29T12:24:35.092Z,12.30
2023-03-29T12:26:50.471Z,12.30
2023-03-29T12:29:05.298Z,13.40
2023-03-29T12:31:12.025Z,12.90
2023-03-29T12:33:35.556Z,12.50
2023-03-29T12:35:42.116Z,12.30
2023-03-29T12:37:46.993Z,12.10
2023-03-29T12:39:51.523Z,11.90
2023-03-29T12:41:54.360Z,11.90
2023-03-29T12:44:02.017Z,12.10
2023-03-29T12:46:07.577Z,12.00
2023-03-29T12:48:16.637Z,12.00
2023-03-29T12:50:24.475Z,11.70
2023-03-29T12:52:28.630Z,11.50
2023-03-29T12:54:32.913Z,11.50
2023-03-29T12:56:42.703Z,11.30
2023-03-29T12:58:57.058Z,11.10
2023-03-29T13:01:06.709Z,11.10
2023-03-29T13:03:22.491Z,10.80
2023-03-29T13:05:30.199Z,10.60
2023-03-29T13:07:44.527Z,10.50
2023-03-29T13:09:51.121Z,10.50
2023-03-29T13:11:55.616Z,10.40
2023-03-29T13:13:58.398Z,10.40
2023-03-29T13:16:12.854Z,10.40
2023-03-29T13:18:29.394Z,10.60
2023-03-29T13:20:39.063Z,10.70
2023-03-29T13:22:48.182Z,10.80
2023-03-29T13:25:02.127Z,10.90
2023-03-29T13:27:07.994Z,11.00
2023-03-29T13:29:19.975Z,11.00
2023-03-29T13:31:31.168Z,11.10
2023-03-29T13:33:45.022Z,11.10
2023-03-29T13:35:52.616Z,11.20
2023-03-29T13:38:01.103Z,11.30
2023-03-29T13:40:05.704Z,11.20
2023-03-29T13:42:19.677Z,11.30
2023-03-29T13:44:29.564Z,11.30
2023-03-29T13:46:40.900Z,11.40
2023-03-29T13:49:03.121Z,11.40
2023-03-29T13:51:20.601Z,11.40
2023-03-29T13:53:27.162Z,11.30
2023-03-29T13:55:33.274Z,11.50
2023-03-29T13:57:40.066Z,11.60
2023-03-29T13:59:47.397Z,11.70
2023-03-29T14:01:53.428Z,11.70
2023-03-29T14:03:56.680Z,11.60
2023-03-29T14:06:00.782Z,11.70
2023-03-29T14:08:08.670Z,11.60
2023-03-29T14:10:13.498Z,11.70
2023-03-29T14:12:16.449Z,11.60
2023-03-29T14:14:22.506Z,11.60
2023-03-29T14:16:27.300Z,11.50
2023-03-29T14:18:34.207Z,11.50
2023-03-29T14:20:36.974Z,11.30
2023-03-29T14:22:39.749Z,11.20
2023-03-29T14:24:49.175Z,11.20
2023-03-29T14:26:52.657Z,11.20
2023-03-29T14:28:56.776Z,11.20
2023-03-29T14:31:01.036Z,11.20
2023-03-29T14:33:05.220Z,11.20
2023-03-29T14:35:10.996Z,11.30
2023-03-29T14:37:13.800Z,11.30
2023-03-29T14:39:17.242Z,11.40
2023-03-29T14:41:21.982Z,11.40
2023-03-29T14:43:29.804Z,11.40
2023-03-29T14:45:32.597Z,11.50
2023-03-29T14:47:37.027Z,11.50
2023-03-29T14:49:39.841Z,11.50
2023-03-29T14:51:42.621Z,11.50
2023-03-29T14:53:46.014Z,11.50
2023-03-29T14:55:50.358Z,11.40
2023-03-29T14:57:55.125Z,11.40
2023-03-29T15:00:00.726Z,11.40
2023-03-29T15:02:03.554Z,11.30
2023-03-29T15:04:08.957Z,11.30
2023-03-29T15:06:11.780Z,11.20
2023-03-29T15:08:16.194Z,11.20
2023-03-29T15:10:19.192Z,11.20
2023-03-29T15:12:22.167Z,11.20
2023-03-29T15:14:26.844Z,11.20
2023-03-29T15:16:30.985Z,11.20
2023-03-29T15:18:36.211Z,11.20
2023-03-29T15:20:40.645Z,11.30
2023-03-29T15:22:53.948Z,11.20
2023-03-29T15:24:56.721Z,11.30
2023-03-29T15:27:01.298Z,11.20
2023-03-29T15:29:08.121Z,11.30
2023-03-29T15:31:12.161Z,11.30
2023-03-29T15:33:17.068Z,11.30
2023-03-29T15:35:24.163Z,11.20
2023-03-29T15:37:28.370Z,11.20
2023-03-29T15:39:31.300Z,11.20
2023-03-29T15:41:34.074Z,11.20
2023-03-29T15:43:37.152Z,11.10
2023-03-29T15:45:39.899Z,11.10
2023-03-29T15:47:42.705Z,11.10
2023-03-29T15:49:46.076Z,11.10
2023-03-29T15:51:48.838Z,11.10
2023-03-29T15:53:52.977Z,11.10
2023-03-29T15:55:56.361Z,11.20
2023-03-29T15:57:59.275Z,11.10
2023-03-29T16:00:02.718Z,11.10
2023-03-29T16:02:05.637Z,11.10
2023-03-29T16:04:11.115Z,11.10
2023-03-29T16:06:13.958Z,11.10
2023-03-29T16:08:16.736Z,11.00
2023-03-29T16:10:22.190Z,11.00
2023-03-29T16:12:24.982Z,11.00
2023-03-29T16:14:30.360Z,11.00
2023-03-29T16:16:33.187Z,11.00
2023-03-29T16:18:36.262Z,10.90
2023-03-29T16:20:39.343Z,10.90
2023-03-29T16:22:42.889Z,10.90
2023-03-29T16:24:45.727Z,10.90
2023-03-29T16:26:49.893Z,10.90
2023-03-29T16:28:52.708Z,10.90
2023-03-29T16:30:55.531Z,10.90
2023-03-29T16:32:58.397Z,10.90
2023-03-29T16:35:01.469Z,10.80
2023-03-29T16:37:04.253Z,10.80
2023-03-29T16:39:07.052Z,10.80
2023-03-29T16:41:12.284Z,10.80
2023-03-29T16:43:17.027Z,10.70
2023-03-29T16:45:19.940Z,10.70
2023-03-29T16:47:22.905Z,10.70
2023-03-29T16:49:25.743Z,10.60
2023-03-29T16:51:28.512Z,10.60
2023-03-29T16:53:31.286Z,10.60
2023-03-29T16:55:34.695Z,10.60
2023-03-29T16:57:37.802Z,10.60
2023-03-29T16:59:44.988Z,10.60
2023-03-29T17:01:47.808Z,10.60
2023-03-29T17:03:50.615Z,10.60
2023-03-29T17:05:54.557Z,10.60
2023-03-29T17:07:57.417Z,10.50
2023-03-29T17:10:00.629Z,10.50
2023-03-29T17:12:03.488Z,10.50
2023-03-29T17:14:06.285Z,10.50
2023-03-29T17:16:10.637Z,10.50
2023-03-29T17:18:13.963Z,10.50
2023-03-29T17:20:17.089Z,10.50
2023-03-29T17:22:19.846Z,10.50
2023-03-29T17:24:22.670Z,10.50
2023-03-29T17:26:26.016Z,10.50
2023-03-29T17:28:29.311Z,10.50
2023-03-29T17:30:32.096Z,10.40
2023-03-29T17:32:36.721Z,10.40
2023-03-29T17:34:39.552Z,10.40
2023-03-29T17:36:42.695Z,10.40
2023-03-29T17:38:48.797Z,10.40
2023-03-29T17:40:54.752Z,10.40
2023-03-29T17:42:57.565Z,10.40
2023-03-29T17:45:00.356Z,10.40
2023-03-29T17:47:03.166Z,10.40
2023-03-29T17:49:07.383Z,10.40
2023-03-29T17:51:10.208Z,10.40
2023-03-29T17:53:13.306Z,10.40
2023-03-29T17:55:16.261Z,10.40
2023-03-29T17:57:19.093Z,10.40
2023-03-29T17:59:21.907Z,10.30
2023-03-29T18:01:24.736Z,10.30
2023-03-29T18:03:27.579Z,10.30
2023-03-29T18:05:31.693Z,10.30
2023-03-29T18:07:34.528Z,10.30
2023-03-29T18:09:37.302Z,10.30
2023-03-29T18:11:40.063Z,10.20
2023-03-29T18:13:44.078Z,10.20
2023-03-29T18:15:47.517Z,10.20
2023-03-29T18:17:50.367Z,10.20
2023-03-29T18:19:53.192Z,10.20
2023-03-29T18:21:57.488Z,10.20
2023-03-29T18:24:00.670Z,10.20
2023-03-29T18:26:03.983Z,10.20
2023-03-29T18:28:07.042Z,10.20
2023-03-29T18:30:10.754Z,10.20
2023-03-29T18:32:14.854Z,10.20
2023-03-29T18:34:17.746Z,10.20
2023-03-29T18:36:20.717Z,10.20
2023-03-29T18:38:25.010Z,10.20
2023-03-29T18:40:27.818Z,10.20
2023-03-29T18:42:30.823Z,10.20
2023-03-29T18:44:33.626Z,10.20
2023-03-29T18:46:36.502Z,10.20
2023-03-29T18:48:39.801Z,10.20
2023-03-29T18:50:44.758Z,10.20
2023-03-29T18:52:47.564Z,10.20
2023-03-29T18:54:51.925Z,10.20
2023-03-29T18:56:56.640Z,10.20
2023-03-29T18:59:05.083Z,10.20
2023-03-29T19:01:08.127Z,10.20
2023-03-29T19:03:11.264Z,10.20
2023-03-29T19:05:14.238Z,10.10
2023-03-29T19:07:17.744Z,10.10
2023-03-29T19:09:20.557Z,10.10
2023-03-29T19:11:26.012Z,10.20
2023-03-29T19:13:30.494Z,10.10
2023-03-29T19:15:34.658Z,10.10
2023-03-29T19:17:37.577Z,10.10
2023-03-29T19:19:40.364Z,10.10
2023-03-29T19:21:43.128Z,10.10
2023-03-29T19:23:46.143Z,10.10
2023-03-29T19:25:58.450Z,10.10
2023-03-29T19:28:03.373Z,10.10
2023-03-29T19:30:07.597Z,10.10
2023-03-29T19:32:10.498Z,10.00
2023-03-29T19:34:13.286Z,10.00
2023-03-29T19:36:16.098Z,10.00
2023-03-29T19:38:18.948Z,10.00
2023-03-29T19:40:21.822Z,10.00
2023-03-29T19:42:24.626Z,10.00
2023-03-29T19:44:29.088Z,10.00
2023-03-29T19:46:31.908Z,10.00
2023-03-29T19:48:34.859Z,10.00
2023-03-29T19:50:40.330Z,10.10
2023-03-29T19:52:43.457Z,10.10
2023-03-29T19:54:46.244Z,10.10
2023-03-29T19:56:51.246Z,10.10
2023-03-29T19:58:55.663Z,10.10
2023-03-29T20:00:59.872Z,10.10
2023-03-29T20:03:03.099Z,10.10
2023-03-29T20:05:06.787Z,10.10
2023-03-29T20:07:09.618Z,10.10
2023-03-29T20:09:12.423Z,10.10
2023-03-29T20:11:15.321Z,10.10
2023-03-29T20:13:31.349Z,10.10
2023-03-29T20:15:40.770Z,10.10
2023-03-29T20:17:44.949Z,10.10
2023-03-29T20:19:47.732Z,10.10
2023-03-29T20:21:54.976Z,10.00
2023-03-29T20:23:57.891Z,10.10
2023-03-29T20:26:00.658Z,10.10
2023-03-29T20:28:03.872Z,10.10
2023-03-29T20:30:09.182Z,10.10
2023-03-29T20:32:11.980Z,10.10
2023-03-29T20:34:18.141Z,10.10
2023-03-29T20:36:23.051Z,10.10
2023-03-29T20:38:26.198Z,10.10
2023-03-29T20:40:29.995Z,10.10
2023-03-29T20:42:34.553Z,10.10
2023-03-29T20:44:39.124Z,10.10
2023-03-29T20:46:54.120Z,10.10
2023-03-29T20:48:56.904Z,10.10
2023-03-29T20:51:03.204Z,10.20
2023-03-29T20:53:06.317Z,10.10
2023-03-29T20:55:09.138Z,10.10
2023-03-29T20:57:14.036Z,10.10
2023-03-29T20:59:16.903Z,10.10
2023-03-29T21:01:21.701Z,10.10
2023-03-29T21:03:24.628Z,10.20
2023-03-29T21:05:27.621Z,10.20
2023-03-29T21:07:31.756Z,10.20
2023-03-29T21:09:36.110Z,10.20
2023-03-29T21:11:39.141Z,10.20
2023-03-29T21:13:42.096Z,10.20
2023-03-29T21:15:45.619Z,10.20
2023-03-29T21:17:48.641Z,10.20
2023-03-29T21:19:51.936Z,10.20
2023-03-29T21:21:54.945Z,10.20
2023-03-29T21:23:59.081Z,10.30
2023-03-29T21:26:01.841Z,10.30
2023-03-29T21:28:04.606Z,10.20
2023-03-29T21:30:08.438Z,10.20
2023-03-29T21:32:11.721Z,10.20
2023-03-29T21:34:15.086Z,10.20
2023-03-29T21:36:17.942Z,10.20
2023-03-29T21:38:20.713Z,10.20
2023-03-29T21:40:24.814Z,10.20
2023-03-29T21:42:27.621Z,10.20
2023-03-29T21:44:32.515Z,10.20
2023-03-29T21:46:36.668Z,10.20
2023-03-29T21:48:39.436Z,10.20
2023-03-29T21:50:42.176Z,10.10
2023-03-29T21:52:44.929Z,10.10
2023-03-29T21:54:47.684Z,10.10
2023-03-29T21:56:51.833Z,10.10
2023-03-29T21:58:54.621Z,10.00
2023-03-29T22:00:57.405Z,10.00
2023-03-29T22:03:00.289Z,9.90
2023-03-29T22:05:03.137Z,9.90
2023-03-29T22:07:05.953Z,9.90
2023-03-29T22:09:10.697Z,9.90
2023-03-29T22:11:15.505Z,9.90
2023-03-29T22:13:19.699Z,9.80
2023-03-29T22:15:22.523Z,9.80
2023-03-29T22:17:26.525Z,9.80
2023-03-29T22:19:29.318Z,9.80
2023-03-29T22:21:32.309Z,9.70
2023-03-29T22:23:35.119Z,9.70
2023-03-29T22:25:37.980Z,9.70
2023-03-29T22:27:40.708Z,9.70
2023-03-29T22:29:44.910Z,9.70
2023-03-29T22:31:47.693Z,9.70
2023-03-29T22:33:50.531Z,9.70
2023-03-29T22:35:53.508Z,9.60
2023-03-29T22:37:56.257Z,9.60
2023-03-29T22:39:59.029Z,9.60
2023-03-29T22:42:01.810Z,9.60
2023-03-29T22:44:04.607Z,9.60
2023-03-29T22:46:10.271Z,9.60
2023-03-29T22:48:13.048Z,9.60
2023-03-29T22:50:16.325Z,9.60
2023-03-29T22:52:19.069Z,9.60
2023-03-29T22:54:21.803Z,9.50
2023-03-29T22:56:24.798Z,9.50
2023-03-29T22:58:29.287Z,9.50
2023-03-29T23:00:32.246Z,9.50
2023-03-29T23:02:36.526Z,9.50
2023-03-29T23:04:39.524Z,9.50
2023-03-29T23:06:42.322Z,9.50
2023-03-29T23:08:45.062Z,9.50
2023-03-29T23:10:47.955Z,9.50
2023-03-29T23:12:50.736Z,9.40
2023-03-29T23:14:55.742Z,9.40
2023-03-29T23:16:58.474Z,9.40
2023-03-29T23:19:02.684Z,9.40
2023-03-29T23:21:06.461Z,9.40
2023-03-29T23:23:09.620Z,9.40
2023-03-29T23:25:13.281Z,9.40
2023-03-29T23:27:16.025Z,9.40
2023-03-29T23:29:18.802Z,9.40
2023-03-29T23:31:23.783Z,9.40
2023-03-29T23:33:26.815Z,9.40
2023-03-29T23:35:30.938Z,9.40
2023-03-29T23:37:33.669Z,9.40
2023-03-29T23:39:36.415Z,9.40
2023-03-29T23:41:40.186Z,9.40
2023-03-29T23:43:43.866Z,9.40
2023-03-29T23:45:47.121Z,9.40
2023-03-29T23:47:49.885Z,9.40
2023-03-29T23:49:53.197Z,9.40
2023-03-29T23:51:59.988Z,9.40
2023-03-29T23:54:03.169Z,9.40
2023-03-29T23:56:06.934Z,9.40
2023-03-29T23:58:09.801Z,9.40
